LiveATC.Net - Listen to live air traffic control over the Internet!

ICAO: KRNH  IATA: RNH   Airport: New Richmond Regional Airport
City: New Richmond   State/Province: Wisconsin
Country: United States   Continent: North America
KRNH METAR Weather: KRNH 221715Z AUTO 00000KT 10SM CLR 13/05 A2999 RMK AO2 T01300046
KRNH Flight Activity (FlightAware)
KRNH Airport Info   (AirNav) (iFlightPlanner)
KRNH VFR Sectional Chart   (iFlightPlanner) 
KRNH IFR Low Chart   (iFlightPlanner) 
KRNH CTAF/Clearance
Feed Status: UP   Listeners: 0
Listen right in your browser - requires Flash (in browser, requires Flash)
Click here to listen with your own player (launches your MP3 player)
KRNH CTAF/Clearance Audio Archives
New Richmond Clearance Delivery (via Minneapolis Approach)121.725
New Richmond CTAF/UNICOM122.975


Unauthorized use prohibited. See Terms of Service

Find LiveATC Audio Streams

Airport/ARTCC Code

(e.g., 124.400, 128.75)
Site-wide search

Browse LiveATC Feeds
LiveATC Coverage Map
Top 50 LiveATC Feeds
Bad Weather Areas

Offer a LiveATC Feed
Press Inquiries

LiveATC on iPhone
LiveATC on Android

Windows Phone
Windows 8/10

LiveATC Mobile
(Mobile browser)

ATC Audio Archives
Interesting Recordings

LiveATC Forums

Home Page
Make a Donation
LiveATC Store

Terms of Use
Privacy Policy

Canadian Air Freqs


FAA Airport Status
Nat'l Airspace Status
Arrival Demand Charts

Server Software By: